sensor_id;sensor_type;location;lat;lon;timestamp;P1;durP1;ratioP1;P2;durP2;ratioP2
43397;SDS011;40242;41.864;21.940;2022-08-14T00:00:40;9.93;;;9.02;;
43397;SDS011;40242;41.864;21.940;2022-08-14T00:03:06;9.80;;;8.90;;
43397;SDS011;40242;41.864;21.940;2022-08-14T00:05:33;7.20;;;6.70;;
43397;SDS011;40242;41.864;21.940;2022-08-14T00:07:59;8.00;;;7.32;;
43397;SDS011;40242;41.864;21.940;2022-08-14T00:10:25;8.63;;;8.02;;
43397;SDS011;40242;41.864;21.940;2022-08-14T00:12:53;10.20;;;9.07;;
43397;SDS011;40242;41.864;21.940;2022-08-14T00:17:49;9.13;;;8.38;;
43397;SDS011;40242;41.864;21.940;2022-08-14T00:20:17;8.65;;;7.95;;
43397;SDS011;40242;41.864;21.940;2022-08-14T00:22:45;8.77;;;8.13;;
43397;SDS011;40242;41.864;21.940;2022-08-14T00:25:11;12.85;;;11.65;;
43397;SDS011;40242;41.864;21.940;2022-08-14T00:27:38;11.45;;;10.55;;
43397;SDS011;40242;41.864;21.940;2022-08-14T00:30:05;9.82;;;8.90;;
43397;SDS011;40242;41.864;21.940;2022-08-14T00:32:32;11.77;;;10.77;;
43397;SDS011;40242;41.864;21.940;2022-08-14T00:34:58;10.35;;;9.45;;
43397;SDS011;40242;41.864;21.940;2022-08-14T00:37:28;10.02;;;9.15;;
43397;SDS011;40242;41.864;21.940;2022-08-14T00:39:54;10.73;;;9.93;;
43397;SDS011;40242;41.864;21.940;2022-08-14T00:42:21;9.50;;;8.40;;
43397;SDS011;40242;41.864;21.940;2022-08-14T00:44:47;12.35;;;10.02;;
43397;SDS011;40242;41.864;21.940;2022-08-14T00:47:14;10.88;;;9.98;;
43397;SDS011;40242;41.864;21.940;2022-08-14T00:49:41;10.02;;;9.02;;
43397;SDS011;40242;41.864;21.940;2022-08-14T00:52:08;9.43;;;8.70;;
43397;SDS011;40242;41.864;21.940;2022-08-14T00:54:34;9.32;;;8.55;;
43397;SDS011;40242;41.864;21.940;2022-08-14T00:57:04;10.13;;;9.32;;
43397;SDS011;40242;41.864;21.940;2022-08-14T00:59:30;10.68;;;9.77;;
43397;SDS011;40242;41.864;21.940;2022-08-14T01:01:58;12.05;;;10.85;;
43397;SDS011;40242;41.864;21.940;2022-08-14T01:04:25;9.82;;;9.02;;
43397;SDS011;40242;41.864;21.940;2022-08-14T01:06:53;8.73;;;8.02;;
43397;SDS011;40242;41.864;21.940;2022-08-14T01:09:19;9.73;;;8.88;;
43397;SDS011;40242;41.864;21.940;2022-08-14T01:11:50;9.98;;;9.20;;
43397;SDS011;40242;41.864;21.940;2022-08-14T01:14:16;11.00;;;10.00;;
43397;SDS011;40242;41.864;21.940;2022-08-14T01:16:43;10.40;;;9.52;;
43397;SDS011;40242;41.864;21.940;2022-08-14T01:19:09;9.35;;;8.57;;
43397;SDS011;40242;41.864;21.940;2022-08-14T01:21:54;11.55;;;10.35;;
43397;SDS011;40242;41.864;21.940;2022-08-14T01:24:21;15.70;;;10.60;;
43397;SDS011;40242;41.864;21.940;2022-08-14T01:26:47;12.55;;;11.43;;
43397;SDS011;40242;41.864;21.940;2022-08-14T01:29:14;13.30;;;12.20;;
43397;SDS011;40242;41.864;21.940;2022-08-14T01:31:40;14.02;;;12.30;;
43397;SDS011;40242;41.864;21.940;2022-08-14T01:34:09;13.32;;;12.15;;
43397;SDS011;40242;41.864;21.940;2022-08-14T01:36:35;14.35;;;13.15;;
43397;SDS011;40242;41.864;21.940;2022-08-14T01:39:08;13.07;;;11.98;;
43397;SDS011;40242;41.864;21.940;2022-08-14T01:41:35;11.10;;;10.10;;
43397;SDS011;40242;41.864;21.940;2022-08-14T01:44:05;14.43;;;13.00;;
43397;SDS011;40242;41.864;21.940;2022-08-14T01:46:33;14.48;;;13.23;;
43397;SDS011;40242;41.864;21.940;2022-08-14T01:49:00;13.65;;;12.18;;
43397;SDS011;40242;41.864;21.940;2022-08-14T01:51:28;13.32;;;12.23;;
43397;SDS011;40242;41.864;21.940;2022-08-14T01:53:55;15.02;;;13.52;;
43397;SDS011;40242;41.864;21.940;2022-08-14T01:56:26;12.50;;;11.40;;
43397;SDS011;40242;41.864;21.940;2022-08-14T01:59:03;14.25;;;13.07;;
43397;SDS011;40242;41.864;21.940;2022-08-14T02:01:30;14.85;;;12.90;;
43397;SDS011;40242;41.864;21.940;2022-08-14T02:03:56;13.68;;;12.32;;
43397;SDS011;40242;41.864;21.940;2022-08-14T02:06:23;13.35;;;12.20;;
43397;SDS011;40242;41.864;21.940;2022-08-14T02:08:51;12.88;;;11.70;;
43397;SDS011;40242;41.864;21.940;2022-08-14T02:11:18;14.32;;;12.73;;
43397;SDS011;40242;41.864;21.940;2022-08-14T02:13:57;13.75;;;12.38;;
43397;SDS011;40242;41.864;21.940;2022-08-14T02:16:25;10.55;;;9.82;;
43397;SDS011;40242;41.864;21.940;2022-08-14T02:18:57;13.32;;;11.93;;
43397;SDS011;40242;41.864;21.940;2022-08-14T02:21:24;11.90;;;10.90;;
43397;SDS011;40242;41.864;21.940;2022-08-14T02:23:52;14.15;;;12.85;;
43397;SDS011;40242;41.864;21.940;2022-08-14T02:26:23;12.20;;;11.10;;
43397;SDS011;40242;41.864;21.940;2022-08-14T02:28:51;11.70;;;10.60;;
43397;SDS011;40242;41.864;21.940;2022-08-14T02:31:18;13.60;;;12.25;;
43397;SDS011;40242;41.864;21.940;2022-08-14T02:33:46;12.38;;;10.80;;
43397;SDS011;40242;41.864;21.940;2022-08-14T02:36:12;11.85;;;10.65;;
43397;SDS011;40242;41.864;21.940;2022-08-14T02:38:40;10.05;;;9.20;;
43397;SDS011;40242;41.864;21.940;2022-08-14T02:41:09;10.82;;;10.00;;
43397;SDS011;40242;41.864;21.940;2022-08-14T02:43:35;10.75;;;9.05;;
43397;SDS011;40242;41.864;21.940;2022-08-14T02:46:03;11.63;;;10.63;;
43397;SDS011;40242;41.864;21.940;2022-08-14T02:48:29;12.43;;;11.30;;
43397;SDS011;40242;41.864;21.940;2022-08-14T02:51:01;11.27;;;10.48;;
43397;SDS011;40242;41.864;21.940;2022-08-14T02:53:28;9.65;;;8.82;;
43397;SDS011;40242;41.864;21.940;2022-08-14T02:55:55;10.38;;;9.43;;
43397;SDS011;40242;41.864;21.940;2022-08-14T02:58:22;9.50;;;8.65;;
43397;SDS011;40242;41.864;21.940;2022-08-14T03:00:48;11.45;;;10.55;;
43397;SDS011;40242;41.864;21.940;2022-08-14T03:03:15;10.20;;;9.40;;
43397;SDS011;40242;41.864;21.940;2022-08-14T03:05:42;12.77;;;11.45;;
43397;SDS011;40242;41.864;21.940;2022-08-14T03:08:10;9.60;;;8.77;;
43397;SDS011;40242;41.864;21.940;2022-08-14T03:10:36;11.07;;;10.15;;
43397;SDS011;40242;41.864;21.940;2022-08-14T03:13:03;10.98;;;10.02;;
43397;SDS011;40242;41.864;21.940;2022-08-14T03:15:31;9.18;;;8.43;;
43397;SDS011;40242;41.864;21.940;2022-08-14T03:17:59;9.63;;;7.15;;
43397;SDS011;40242;41.864;21.940;2022-08-14T03:20:26;8.13;;;7.43;;
43397;SDS011;40242;41.864;21.940;2022-08-14T03:22:53;5.75;;;5.45;;
43397;SDS011;40242;41.864;21.940;2022-08-14T03:25:20;5.30;;;4.75;;
43397;SDS011;40242;41.864;21.940;2022-08-14T03:27:47;5.15;;;4.85;;
43397;SDS011;40242;41.864;21.940;2022-08-14T03:30:13;5.25;;;4.55;;
43397;SDS011;40242;41.864;21.940;2022-08-14T03:32:39;5.90;;;5.30;;
43397;SDS011;40242;41.864;21.940;2022-08-14T03:35:06;5.97;;;5.20;;
43397;SDS011;40242;41.864;21.940;2022-08-14T03:37:33;9.20;;;5.60;;
43397;SDS011;40242;41.864;21.940;2022-08-14T03:39:59;4.68;;;4.32;;
43397;SDS011;40242;41.864;21.940;2022-08-14T03:42:26;4.53;;;4.13;;
43397;SDS011;40242;41.864;21.940;2022-08-14T03:44:52;4.82;;;4.50;;
43397;SDS011;40242;41.864;21.940;2022-08-14T03:47:18;5.25;;;4.50;;
43397;SDS011;40242;41.864;21.940;2022-08-14T03:49:44;6.57;;;6.07;;
43397;SDS011;40242;41.864;21.940;2022-08-14T03:52:11;6.63;;;6.07;;
43397;SDS011;40242;41.864;21.940;2022-08-14T03:54:37;5.35;;;4.90;;
43397;SDS011;40242;41.864;21.940;2022-08-14T03:57:04;7.15;;;4.72;;
43397;SDS011;40242;41.864;21.940;2022-08-14T03:59:31;6.35;;;5.85;;
43397;SDS011;40242;41.864;21.940;2022-08-14T04:01:57;7.45;;;5.65;;
43397;SDS011;40242;41.864;21.940;2022-08-14T04:04:23;5.88;;;5.38;;
43397;SDS011;40242;41.864;21.940;2022-08-14T04:06:49;5.53;;;5.00;;
43397;SDS011;40242;41.864;21.940;2022-08-14T04:09:16;5.95;;;5.60;;
43397;SDS011;40242;41.864;21.940;2022-08-14T04:11:42;5.43;;;5.18;;
43397;SDS011;40242;41.864;21.940;2022-08-14T04:14:09;6.28;;;5.40;;
43397;SDS011;40242;41.864;21.940;2022-08-14T04:16:35;10.70;;;5.65;;
43397;SDS011;40242;41.864;21.940;2022-08-14T04:19:01;5.40;;;5.05;;
43397;SDS011;40242;41.864;21.940;2022-08-14T04:21:28;6.38;;;5.80;;
43397;SDS011;40242;41.864;21.940;2022-08-14T04:23:56;5.47;;;4.95;;
43397;SDS011;40242;41.864;21.940;2022-08-14T04:26:23;4.07;;;3.78;;
43397;SDS011;40242;41.864;21.940;2022-08-14T04:28:49;5.43;;;4.93;;
43397;SDS011;40242;41.864;21.940;2022-08-14T04:31:19;10.85;;;5.63;;
43397;SDS011;40242;41.864;21.940;2022-08-14T04:33:45;7.70;;;4.88;;
43397;SDS011;40242;41.864;21.940;2022-08-14T04:36:12;4.28;;;3.97;;
43397;SDS011;40242;41.864;21.940;2022-08-14T04:38:38;6.03;;;5.43;;
43397;SDS011;40242;41.864;21.940;2022-08-14T04:41:23;8.15;;;5.45;;
43397;SDS011;40242;41.864;21.940;2022-08-14T04:44:08;7.03;;;5.95;;
43397;SDS011;40242;41.864;21.940;2022-08-14T04:46:34;7.95;;;7.22;;
43397;SDS011;40242;41.864;21.940;2022-08-14T04:49:01;6.38;;;5.88;;
43397;SDS011;40242;41.864;21.940;2022-08-14T04:51:28;7.88;;;6.00;;
43397;SDS011;40242;41.864;21.940;2022-08-14T04:53:55;7.70;;;5.65;;
43397;SDS011;40242;41.864;21.940;2022-08-14T04:56:22;6.10;;;5.70;;
43397;SDS011;40242;41.864;21.940;2022-08-14T04:58:49;7.40;;;6.80;;
43397;SDS011;40242;41.864;21.940;2022-08-14T05:01:20;7.50;;;6.90;;
43397;SDS011;40242;41.864;21.940;2022-08-14T05:03:46;6.80;;;5.80;;
43397;SDS011;40242;41.864;21.940;2022-08-14T05:06:13;12.70;;;6.53;;
43397;SDS011;40242;41.864;21.940;2022-08-14T05:08:39;7.85;;;7.07;;
43397;SDS011;40242;41.864;21.940;2022-08-14T05:11:08;10.40;;;8.27;;
43397;SDS011;40242;41.864;21.940;2022-08-14T05:13:34;7.97;;;7.18;;
43397;SDS011;40242;41.864;21.940;2022-08-14T05:16:04;7.38;;;6.70;;
43397;SDS011;40242;41.864;21.940;2022-08-14T05:18:35;7.93;;;6.97;;
43397;SDS011;40242;41.864;21.940;2022-08-14T05:21:08;7.38;;;6.68;;
43397;SDS011;40242;41.864;21.940;2022-08-14T05:23:35;7.50;;;6.70;;
43397;SDS011;40242;41.864;21.940;2022-08-14T05:26:03;6.82;;;6.22;;
43397;SDS011;40242;41.864;21.940;2022-08-14T05:28:42;6.43;;;6.03;;
43397;SDS011;40242;41.864;21.940;2022-08-14T05:31:10;6.47;;;6.07;;
43397;SDS011;40242;41.864;21.940;2022-08-14T05:33:37;6.90;;;6.38;;
43397;SDS011;40242;41.864;21.940;2022-08-14T05:36:05;5.72;;;5.30;;
43397;SDS011;40242;41.864;21.940;2022-08-14T05:38:36;6.03;;;5.03;;
43397;SDS011;40242;41.864;21.940;2022-08-14T05:41:03;5.10;;;4.70;;
43397;SDS011;40242;41.864;21.940;2022-08-14T05:43:30;6.32;;;4.57;;
43397;SDS011;40242;41.864;21.940;2022-08-14T05:45:57;4.43;;;4.18;;
43397;SDS011;40242;41.864;21.940;2022-08-14T05:48:24;6.38;;;5.40;;
43397;SDS011;40242;41.864;21.940;2022-08-14T05:50:51;5.60;;;5.30;;
43397;SDS011;40242;41.864;21.940;2022-08-14T05:53:22;4.93;;;4.70;;
43397;SDS011;40242;41.864;21.940;2022-08-14T05:55:49;4.97;;;4.47;;
43397;SDS011;40242;41.864;21.940;2022-08-14T05:58:16;5.00;;;4.80;;
43397;SDS011;40242;41.864;21.940;2022-08-14T06:00:43;4.38;;;4.07;;
43397;SDS011;40242;41.864;21.940;2022-08-14T06:03:11;3.85;;;3.70;;
43397;SDS011;40242;41.864;21.940;2022-08-14T06:05:39;4.43;;;4.22;;
43397;SDS011;40242;41.864;21.940;2022-08-14T06:08:20;5.85;;;4.60;;
43397;SDS011;40242;41.864;21.940;2022-08-14T06:10:47;9.45;;;4.90;;
43397;SDS011;40242;41.864;21.940;2022-08-14T06:13:13;5.60;;;4.88;;
43397;SDS011;40242;41.864;21.940;2022-08-14T06:15:41;5.70;;;4.35;;
43397;SDS011;40242;41.864;21.940;2022-08-14T06:18:07;5.68;;;3.50;;
43397;SDS011;40242;41.864;21.940;2022-08-14T06:20:36;3.85;;;3.60;;
43397;SDS011;40242;41.864;21.940;2022-08-14T06:23:02;3.83;;;3.55;;
43397;SDS011;40242;41.864;21.940;2022-08-14T06:25:29;3.63;;;3.33;;
43397;SDS011;40242;41.864;21.940;2022-08-14T06:27:55;4.05;;;3.72;;
43397;SDS011;40242;41.864;21.940;2022-08-14T06:30:22;6.85;;;4.68;;
43397;SDS011;40242;41.864;21.940;2022-08-14T06:32:49;4.65;;;4.25;;
43397;SDS011;40242;41.864;21.940;2022-08-14T06:35:15;4.20;;;3.90;;
43397;SDS011;40242;41.864;21.940;2022-08-14T06:40:14;3.95;;;3.35;;
43397;SDS011;40242;41.864;21.940;2022-08-14T06:42:41;4.40;;;3.08;;
43397;SDS011;40242;41.864;21.940;2022-08-14T06:45:07;3.95;;;3.42;;
43397;SDS011;40242;41.864;21.940;2022-08-14T06:47:37;3.13;;;3.03;;
43397;SDS011;40242;41.864;21.940;2022-08-14T06:50:05;4.40;;;3.70;;
43397;SDS011;40242;41.864;21.940;2022-08-14T06:52:31;4.68;;;4.25;;
43397;SDS011;40242;41.864;21.940;2022-08-14T06:54:57;3.17;;;3.03;;
43397;SDS011;40242;41.864;21.940;2022-08-14T06:57:24;3.88;;;3.53;;
43397;SDS011;40242;41.864;21.940;2022-08-14T06:59:51;3.47;;;3.28;;
43397;SDS011;40242;41.864;21.940;2022-08-14T07:02:17;4.55;;;3.38;;
43397;SDS011;40242;41.864;21.940;2022-08-14T07:05:02;5.25;;;3.97;;
43397;SDS011;40242;41.864;21.940;2022-08-14T07:07:47;3.97;;;3.50;;
43397;SDS011;40242;41.864;21.940;2022-08-14T07:10:13;3.60;;;3.05;;
43397;SDS011;40242;41.864;21.940;2022-08-14T07:12:40;3.80;;;3.53;;
43397;SDS011;40242;41.864;21.940;2022-08-14T07:15:07;6.15;;;4.18;;
43397;SDS011;40242;41.864;21.940;2022-08-14T07:17:33;12.05;;;6.82;;
43397;SDS011;40242;41.864;21.940;2022-08-14T07:20:00;4.18;;;3.88;;
43397;SDS011;40242;41.864;21.940;2022-08-14T07:22:26;3.35;;;3.05;;
43397;SDS011;40242;41.864;21.940;2022-08-14T07:24:52;4.80;;;4.40;;
43397;SDS011;40242;41.864;21.940;2022-08-14T07:27:18;8.02;;;4.00;;
43397;SDS011;40242;41.864;21.940;2022-08-14T07:29:45;3.90;;;3.60;;
43397;SDS011;40242;41.864;21.940;2022-08-14T07:32:11;3.63;;;2.80;;
43397;SDS011;40242;41.864;21.940;2022-08-14T07:34:37;5.07;;;3.15;;
43397;SDS011;40242;41.864;21.940;2022-08-14T07:37:03;5.55;;;3.08;;
43397;SDS011;40242;41.864;21.940;2022-08-14T07:39:29;2.80;;;2.58;;
43397;SDS011;40242;41.864;21.940;2022-08-14T07:41:56;3.20;;;2.13;;
43397;SDS011;40242;41.864;21.940;2022-08-14T07:44:22;2.90;;;2.60;;
43397;SDS011;40242;41.864;21.940;2022-08-14T07:46:49;4.22;;;3.03;;
43397;SDS011;40242;41.864;21.940;2022-08-14T07:49:15;3.63;;;3.42;;
43397;SDS011;40242;41.864;21.940;2022-08-14T07:51:43;5.78;;;3.53;;
43397;SDS011;40242;41.864;21.940;2022-08-14T07:54:09;3.40;;;2.20;;
43397;SDS011;40242;41.864;21.940;2022-08-14T07:56:35;2.90;;;2.78;;
43397;SDS011;40242;41.864;21.940;2022-08-14T07:59:01;2.10;;;2.10;;
43397;SDS011;40242;41.864;21.940;2022-08-14T08:01:28;4.47;;;3.08;;
43397;SDS011;40242;41.864;21.940;2022-08-14T08:03:54;2.58;;;2.35;;
43397;SDS011;40242;41.864;21.940;2022-08-14T08:06:25;2.97;;;2.70;;
43397;SDS011;40242;41.864;21.940;2022-08-14T08:08:52;3.30;;;1.85;;
43397;SDS011;40242;41.864;21.940;2022-08-14T08:11:20;2.50;;;2.35;;
43397;SDS011;40242;41.864;21.940;2022-08-14T08:13:46;5.57;;;2.17;;
43397;SDS011;40242;41.864;21.940;2022-08-14T08:16:13;6.28;;;3.20;;
43397;SDS011;40242;41.864;21.940;2022-08-14T08:18:40;2.47;;;2.38;;
43397;SDS011;40242;41.864;21.940;2022-08-14T08:21:06;2.03;;;1.92;;
43397;SDS011;40242;41.864;21.940;2022-08-14T08:23:32;1.85;;;1.60;;
43397;SDS011;40242;41.864;21.940;2022-08-14T08:25:58;1.60;;;1.60;;
43397;SDS011;40242;41.864;21.940;2022-08-14T08:28:25;2.17;;;2.10;;
43397;SDS011;40242;41.864;21.940;2022-08-14T08:30:56;2.70;;;2.50;;
43397;SDS011;40242;41.864;21.940;2022-08-14T08:33:24;4.43;;;2.33;;
43397;SDS011;40242;41.864;21.940;2022-08-14T08:35:52;3.00;;;2.33;;
43397;SDS011;40242;41.864;21.940;2022-08-14T08:38:21;14.30;;;2.30;;
43397;SDS011;40242;41.864;21.940;2022-08-14T08:40:48;5.03;;;2.38;;
43397;SDS011;40242;41.864;21.940;2022-08-14T08:45:41;2.03;;;1.90;;
43397;SDS011;40242;41.864;21.940;2022-08-14T08:48:07;2.17;;;2.03;;
43397;SDS011;40242;41.864;21.940;2022-08-14T08:50:35;2.58;;;2.40;;
43397;SDS011;40242;41.864;21.940;2022-08-14T08:53:04;2.53;;;2.25;;
43397;SDS011;40242;41.864;21.940;2022-08-14T08:55:34;2.63;;;2.42;;
43397;SDS011;40242;41.864;21.940;2022-08-14T08:58:03;2.00;;;2.00;;
43397;SDS011;40242;41.864;21.940;2022-08-14T09:00:31;2.08;;;2.08;;
43397;SDS011;40242;41.864;21.940;2022-08-14T09:05:27;3.38;;;1.60;;
43397;SDS011;40242;41.864;21.940;2022-08-14T09:07:54;3.47;;;1.63;;
43397;SDS011;40242;41.864;21.940;2022-08-14T09:10:33;1.52;;;1.42;;
43397;SDS011;40242;41.864;21.940;2022-08-14T09:12:59;1.52;;;1.45;;
43397;SDS011;40242;41.864;21.940;2022-08-14T09:15:26;2.08;;;2.08;;
43397;SDS011;40242;41.864;21.940;2022-08-14T09:17:52;1.95;;;1.95;;
43397;SDS011;40242;41.864;21.940;2022-08-14T09:20:19;4.53;;;2.60;;
43397;SDS011;40242;41.864;21.940;2022-08-14T09:22:45;2.10;;;2.00;;
43397;SDS011;40242;41.864;21.940;2022-08-14T09:25:12;1.98;;;1.90;;
43397;SDS011;40242;41.864;21.940;2022-08-14T09:27:38;3.08;;;2.47;;
43397;SDS011;40242;41.864;21.940;2022-08-14T09:30:06;1.90;;;1.90;;
43397;SDS011;40242;41.864;21.940;2022-08-14T09:35:54;2.35;;;2.03;;
43397;SDS011;40242;41.864;21.940;2022-08-14T09:46:07;1.58;;;1.58;;
43397;SDS011;40242;41.864;21.940;2022-08-14T09:48:33;1.50;;;1.50;;
43397;SDS011;40242;41.864;21.940;2022-08-14T09:51:02;1.73;;;1.63;;
43397;SDS011;40242;41.864;21.940;2022-08-14T09:53:33;1.98;;;1.80;;
43397;SDS011;40242;41.864;21.940;2022-08-14T09:56:00;1.07;;;1.07;;
43397;SDS011;40242;41.864;21.940;2022-08-14T09:58:35;1.25;;;1.20;;
43397;SDS011;40242;41.864;21.940;2022-08-14T10:01:07;1.38;;;1.38;;
43397;SDS011;40242;41.864;21.940;2022-08-14T10:03:34;2.23;;;1.50;;
43397;SDS011;40242;41.864;21.940;2022-08-14T10:06:11;3.45;;;1.70;;
43397;SDS011;40242;41.864;21.940;2022-08-14T10:08:44;1.90;;;1.77;;
43397;SDS011;40242;41.864;21.940;2022-08-14T10:11:14;1.40;;;1.30;;
43397;SDS011;40242;41.864;21.940;2022-08-14T10:13:43;5.35;;;1.67;;
43397;SDS011;40242;41.864;21.940;2022-08-14T10:16:10;1.58;;;1.48;;
43397;SDS011;40242;41.864;21.940;2022-08-14T10:18:37;1.17;;;1.17;;
43397;SDS011;40242;41.864;21.940;2022-08-14T10:21:03;1.83;;;1.73;;
43397;SDS011;40242;41.864;21.940;2022-08-14T10:23:42;2.85;;;0.93;;
43397;SDS011;40242;41.864;21.940;2022-08-14T10:26:10;2.13;;;1.40;;
43397;SDS011;40242;41.864;21.940;2022-08-14T10:28:42;1.55;;;1.30;;
43397;SDS011;40242;41.864;21.940;2022-08-14T10:31:19;1.40;;;1.30;;
43397;SDS011;40242;41.864;21.940;2022-08-14T10:33:59;3.35;;;1.73;;
43397;SDS011;40242;41.864;21.940;2022-08-14T10:36:30;1.55;;;1.45;;
43397;SDS011;40242;41.864;21.940;2022-08-14T10:38:57;2.92;;;1.80;;
43397;SDS011;40242;41.864;21.940;2022-08-14T10:41:33;1.17;;;1.17;;
43397;SDS011;40242;41.864;21.940;2022-08-14T10:44:09;0.80;;;0.80;;
43397;SDS011;40242;41.864;21.940;2022-08-14T10:46:45;1.38;;;1.27;;
43397;SDS011;40242;41.864;21.940;2022-08-14T10:49:18;1.30;;;0.93;;
43397;SDS011;40242;41.864;21.940;2022-08-14T10:57:15;1.20;;;1.20;;
43397;SDS011;40242;41.864;21.940;2022-08-14T11:00:01;1.45;;;0.65;;
43397;SDS011;40242;41.864;21.940;2022-08-14T11:02:38;0.82;;;0.82;;
43397;SDS011;40242;41.864;21.940;2022-08-14T11:07:32;3.15;;;1.25;;
43397;SDS011;40242;41.864;21.940;2022-08-14T11:09:59;0.77;;;0.77;;
43397;SDS011;40242;41.864;21.940;2022-08-14T11:12:36;0.70;;;0.70;;
43397;SDS011;40242;41.864;21.940;2022-08-14T11:15:03;1.35;;;1.35;;
43397;SDS011;40242;41.864;21.940;2022-08-14T11:17:30;2.75;;;1.65;;
43397;SDS011;40242;41.864;21.940;2022-08-14T11:19:57;1.70;;;1.70;;
43397;SDS011;40242;41.864;21.940;2022-08-14T11:22:27;0.98;;;0.98;;
43397;SDS011;40242;41.864;21.940;2022-08-14T11:24:55;2.08;;;1.60;;
43397;SDS011;40242;41.864;21.940;2022-08-14T11:27:26;5.35;;;1.63;;
43397;SDS011;40242;41.864;21.940;2022-08-14T11:29:52;0.93;;;0.80;;
43397;SDS011;40242;41.864;21.940;2022-08-14T11:32:20;1.35;;;0.88;;
43397;SDS011;40242;41.864;21.940;2022-08-14T11:34:47;3.67;;;0.93;;
43397;SDS011;40242;41.864;21.940;2022-08-14T11:37:14;2.63;;;1.60;;
43397;SDS011;40242;41.864;21.940;2022-08-14T11:39:40;1.40;;;1.40;;
43397;SDS011;40242;41.864;21.940;2022-08-14T11:42:07;1.90;;;1.80;;
43397;SDS011;40242;41.864;21.940;2022-08-14T11:44:43;3.05;;;1.05;;
43397;SDS011;40242;41.864;21.940;2022-08-14T11:47:10;1.38;;;1.38;;
43397;SDS011;40242;41.864;21.940;2022-08-14T11:49:44;1.80;;;1.73;;
43397;SDS011;40242;41.864;21.940;2022-08-14T11:52:12;1.17;;;1.17;;
43397;SDS011;40242;41.864;21.940;2022-08-14T11:54:38;1.60;;;1.60;;
43397;SDS011;40242;41.864;21.940;2022-08-14T11:57:12;1.85;;;1.10;;
43397;SDS011;40242;41.864;21.940;2022-08-14T11:59:38;1.13;;;1.13;;
43397;SDS011;40242;41.864;21.940;2022-08-14T12:02:15;1.38;;;1.25;;
43397;SDS011;40242;41.864;21.940;2022-08-14T12:04:48;2.72;;;1.60;;
43397;SDS011;40242;41.864;21.940;2022-08-14T12:07:15;1.55;;;1.55;;
43397;SDS011;40242;41.864;21.940;2022-08-14T12:09:41;2.53;;;2.38;;
43397;SDS011;40242;41.864;21.940;2022-08-14T12:12:27;2.40;;;2.30;;
43397;SDS011;40242;41.864;21.940;2022-08-14T12:14:57;1.30;;;1.30;;
43397;SDS011;40242;41.864;21.940;2022-08-14T12:17:27;1.48;;;1.48;;
43397;SDS011;40242;41.864;21.940;2022-08-14T12:19:56;3.85;;;1.52;;
43397;SDS011;40242;41.864;21.940;2022-08-14T12:22:33;1.55;;;1.50;;
43397;SDS011;40242;41.864;21.940;2022-08-14T12:24:59;1.40;;;1.40;;
43397;SDS011;40242;41.864;21.940;2022-08-14T12:27:35;1.98;;;1.33;;
43397;SDS011;40242;41.864;21.940;2022-08-14T12:30:02;1.83;;;1.73;;
43397;SDS011;40242;41.864;21.940;2022-08-14T12:32:41;1.80;;;1.70;;
43397;SDS011;40242;41.864;21.940;2022-08-14T12:35:08;1.67;;;1.58;;
43397;SDS011;40242;41.864;21.940;2022-08-14T12:37:34;1.60;;;1.60;;
43397;SDS011;40242;41.864;21.940;2022-08-14T12:40:11;2.58;;;1.40;;
43397;SDS011;40242;41.864;21.940;2022-08-14T12:42:37;1.40;;;1.30;;
43397;SDS011;40242;41.864;21.940;2022-08-14T12:45:04;1.30;;;1.30;;
43397;SDS011;40242;41.864;21.940;2022-08-14T12:47:30;2.35;;;2.15;;
43397;SDS011;40242;41.864;21.940;2022-08-14T12:49:56;2.28;;;2.17;;
43397;SDS011;40242;41.864;21.940;2022-08-14T12:52:30;1.90;;;1.90;;
43397;SDS011;40242;41.864;21.940;2022-08-14T12:55:01;2.45;;;2.38;;
43397;SDS011;40242;41.864;21.940;2022-08-14T12:57:32;2.00;;;2.00;;
43397;SDS011;40242;41.864;21.940;2022-08-14T13:02:37;2.10;;;1.90;;
43397;SDS011;40242;41.864;21.940;2022-08-14T13:05:03;1.88;;;1.83;;
43397;SDS011;40242;41.864;21.940;2022-08-14T13:07:29;1.83;;;1.83;;
43397;SDS011;40242;41.864;21.940;2022-08-14T13:09:56;2.42;;;2.13;;
43397;SDS011;40242;41.864;21.940;2022-08-14T13:12:25;6.05;;;2.65;;
43397;SDS011;40242;41.864;21.940;2022-08-14T13:14:56;2.13;;;2.03;;
43397;SDS011;40242;41.864;21.940;2022-08-14T13:17:24;2.22;;;2.10;;
43397;SDS011;40242;41.864;21.940;2022-08-14T13:19:54;2.45;;;2.45;;
43397;SDS011;40242;41.864;21.940;2022-08-14T13:22:24;2.60;;;2.50;;
43397;SDS011;40242;41.864;21.940;2022-08-14T13:24:52;2.40;;;2.00;;
43397;SDS011;40242;41.864;21.940;2022-08-14T13:27:22;2.75;;;2.65;;
43397;SDS011;40242;41.864;21.940;2022-08-14T13:29:52;3.00;;;2.90;;
43397;SDS011;40242;41.864;21.940;2022-08-14T13:32:24;2.33;;;2.22;;
43397;SDS011;40242;41.864;21.940;2022-08-14T13:34:52;2.20;;;2.20;;
43397;SDS011;40242;41.864;21.940;2022-08-14T13:37:19;2.85;;;2.75;;
43397;SDS011;40242;41.864;21.940;2022-08-14T13:39:49;3.28;;;3.10;;
43397;SDS011;40242;41.864;21.940;2022-08-14T13:42:17;2.25;;;2.15;;
43397;SDS011;40242;41.864;21.940;2022-08-14T13:44:45;3.00;;;2.72;;
43397;SDS011;40242;41.864;21.940;2022-08-14T13:47:14;2.38;;;1.42;;
43397;SDS011;40242;41.864;21.940;2022-08-14T13:49:44;2.85;;;1.35;;
43397;SDS011;40242;41.864;21.940;2022-08-14T13:52:10;1.50;;;1.50;;
43397;SDS011;40242;41.864;21.940;2022-08-14T13:54:38;1.30;;;1.10;;
43397;SDS011;40242;41.864;21.940;2022-08-14T13:57:06;2.65;;;1.20;;
43397;SDS011;40242;41.864;21.940;2022-08-14T13:59:34;1.00;;;1.00;;
43397;SDS011;40242;41.864;21.940;2022-08-14T14:02:03;2.50;;;1.35;;
43397;SDS011;40242;41.864;21.940;2022-08-14T14:04:29;1.88;;;1.48;;
43397;SDS011;40242;41.864;21.940;2022-08-14T14:06:56;1.15;;;1.00;;
43397;SDS011;40242;41.864;21.940;2022-08-14T14:09:29;2.70;;;1.50;;
43397;SDS011;40242;41.864;21.940;2022-08-14T14:11:58;9.45;;;1.10;;
43397;SDS011;40242;41.864;21.940;2022-08-14T14:14:25;1.33;;;1.02;;
43397;SDS011;40242;41.864;21.940;2022-08-14T14:16:52;2.75;;;1.17;;
43397;SDS011;40242;41.864;21.940;2022-08-14T14:19:18;2.42;;;1.52;;
43397;SDS011;40242;41.864;21.940;2022-08-14T14:21:47;12.73;;;1.52;;
43397;SDS011;40242;41.864;21.940;2022-08-14T14:24:14;2.42;;;1.48;;
43397;SDS011;40242;41.864;21.940;2022-08-14T14:26:44;3.80;;;2.03;;
43397;SDS011;40242;41.864;21.940;2022-08-14T14:29:11;3.97;;;1.60;;
43397;SDS011;40242;41.864;21.940;2022-08-14T14:31:38;1.40;;;1.13;;
43397;SDS011;40242;41.864;21.940;2022-08-14T14:34:05;3.60;;;1.83;;
43397;SDS011;40242;41.864;21.940;2022-08-14T14:36:35;7.35;;;1.60;;
43397;SDS011;40242;41.864;21.940;2022-08-14T14:39:03;6.28;;;1.65;;
43397;SDS011;40242;41.864;21.940;2022-08-14T14:41:31;2.08;;;1.33;;
43397;SDS011;40242;41.864;21.940;2022-08-14T14:43:57;2.03;;;1.35;;
43397;SDS011;40242;41.864;21.940;2022-08-14T14:46:24;2.30;;;1.23;;
43397;SDS011;40242;41.864;21.940;2022-08-14T14:48:58;4.85;;;1.33;;
43397;SDS011;40242;41.864;21.940;2022-08-14T14:51:25;2.00;;;1.85;;
43397;SDS011;40242;41.864;21.940;2022-08-14T14:53:51;2.42;;;1.80;;
43397;SDS011;40242;41.864;21.940;2022-08-14T14:56:18;5.40;;;1.73;;
43397;SDS011;40242;41.864;21.940;2022-08-14T14:58:44;2.47;;;2.15;;
43397;SDS011;40242;41.864;21.940;2022-08-14T15:01:11;3.22;;;2.15;;
43397;SDS011;40242;41.864;21.940;2022-08-14T15:03:42;3.22;;;2.88;;
43397;SDS011;40242;41.864;21.940;2022-08-14T15:06:10;3.00;;;2.80;;
43397;SDS011;40242;41.864;21.940;2022-08-14T15:08:36;3.28;;;2.25;;